createdAt,value
2023-02-23T00:00:01.621Z,2
2023-02-23T00:01:01.519Z,2
2023-02-23T00:02:01.374Z,2
2023-02-23T00:03:01.448Z,1.9
2023-02-23T00:04:01.476Z,1.9
2023-02-23T00:05:01.457Z,2
2023-02-23T00:06:01.417Z,2
2023-02-23T00:07:01.316Z,2
2023-02-23T00:08:02.264Z,2
2023-02-23T00:09:02.241Z,1.9
2023-02-23T00:10:02.210Z,2
2023-02-23T00:11:02.121Z,1.9
2023-02-23T00:12:02.057Z,1.9
2023-02-23T00:13:02.017Z,1.9
2023-02-23T00:14:01.945Z,2
2023-02-23T00:15:01.867Z,1.9
2023-02-23T00:16:01.777Z,2
2023-02-23T00:17:01.409Z,1.9
2023-02-23T00:18:01.377Z,1.9
2023-02-23T00:19:01.321Z,1.9
2023-02-23T00:20:02.285Z,1.9
2023-02-23T00:21:02.299Z,2
2023-02-23T00:22:02.215Z,1.9
2023-02-23T00:23:02.153Z,1.9
2023-02-23T00:24:02.096Z,1.9
2023-02-23T00:25:03.276Z,1.9
2023-02-23T00:26:02.094Z,1.8
2023-02-23T00:27:02.057Z,1.9
2023-02-23T00:28:01.924Z,1.9
2023-02-23T00:29:01.829Z,1.9
2023-02-23T00:30:01.766Z,1.8
2023-02-23T00:31:01.767Z,1.7
2023-02-23T00:32:01.737Z,1.8
2023-02-23T00:33:01.846Z,1.8
2023-02-23T00:34:01.801Z,1.8
2023-02-23T00:35:01.738Z,1.8
2023-02-23T00:36:01.688Z,1.8
2023-02-23T00:37:01.681Z,1.8
2023-02-23T00:38:01.599Z,1.8
2023-02-23T00:39:01.510Z,1.8
2023-02-23T00:40:01.406Z,1.8
2023-02-23T00:41:01.331Z,1.8
2023-02-23T00:42:02.324Z,1.7
2023-02-23T00:43:01.335Z,1.8
2023-02-23T00:44:02.283Z,1.8
2023-02-23T00:45:02.246Z,1.8
2023-02-23T00:46:02.161Z,1.7
2023-02-23T00:47:02.279Z,1.7
2023-02-23T00:48:02.216Z,1.7
2023-02-23T00:49:02.165Z,1.6
2023-02-23T00:50:02.117Z,1.7
2023-02-23T00:51:02.003Z,1.7
2023-02-23T00:52:01.913Z,1.7
2023-02-23T00:53:01.832Z,1.6
2023-02-23T00:54:01.767Z,1.6
2023-02-23T00:55:01.713Z,1.7
2023-02-23T00:56:01.600Z,1.6
2023-02-23T00:57:01.508Z,1.6
2023-02-23T00:58:01.424Z,1.6
2023-02-23T00:59:01.379Z,1.6
2023-02-23T01:00:01.336Z,1.6
2023-02-23T01:01:02.336Z,1.6
2023-02-23T01:02:02.137Z,1.5
2023-02-23T01:03:02.045Z,1.6
2023-02-23T01:04:01.989Z,1.6
2023-02-23T01:05:01.955Z,1.6
2023-02-23T01:06:01.890Z,1.6
2023-02-23T01:07:01.844Z,1.5
2023-02-23T01:08:01.800Z,1.6
2023-02-23T01:09:01.666Z,1.5
2023-02-23T01:10:01.610Z,1.5
2023-02-23T01:11:01.521Z,1.5
2023-02-23T01:12:01.422Z,1.4
2023-02-23T01:13:01.350Z,1.5
2023-02-23T01:14:02.308Z,1.4
2023-02-23T01:15:02.223Z,1.4
2023-02-23T01:16:02.238Z,1.4
2023-02-23T01:17:02.037Z,1.4
2023-02-23T01:18:01.955Z,1.4
2023-02-23T01:19:01.847Z,1.5
2023-02-23T01:20:01.800Z,1.4
2023-02-23T01:21:01.758Z,1.3
2023-02-23T01:22:01.696Z,1.4
2023-02-23T01:23:01.626Z,1.3
2023-02-23T01:24:01.594Z,1.4
2023-02-23T01:25:01.476Z,1.4
2023-02-23T01:26:01.397Z,1.3
2023-02-23T01:27:01.332Z,1.3
2023-02-23T01:28:02.275Z,1.4
2023-02-23T01:29:02.229Z,1.4
2023-02-23T01:30:02.177Z,1.4
2023-02-23T01:31:02.211Z,1.3
2023-02-23T01:32:04.578Z,1.3
2023-02-23T01:33:02.001Z,1.3
2023-02-23T01:34:01.908Z,1.4
2023-02-23T01:35:01.856Z,1.4
2023-02-23T01:36:01.754Z,1.4
2023-02-23T01:37:01.678Z,1.4
2023-02-23T01:38:01.659Z,1.4
2023-02-23T01:39:01.587Z,1.4
2023-02-23T01:40:01.566Z,1.4
2023-02-23T01:41:01.471Z,1.3
2023-02-23T01:42:01.368Z,1.3
2023-02-23T01:43:01.305Z,1.3
2023-02-23T01:44:02.252Z,1.2
2023-02-23T01:45:02.225Z,1.3
2023-02-23T01:46:02.224Z,1.3
2023-02-23T01:47:01.999Z,1.3
2023-02-23T01:48:01.958Z,1.2
2023-02-23T01:49:01.862Z,1.2
2023-02-23T01:50:01.780Z,1.2
2023-02-23T01:51:01.671Z,1.3
2023-02-23T01:52:01.608Z,1.3
2023-02-23T01:53:01.524Z,1.2
2023-02-23T01:54:01.463Z,1.1
2023-02-23T01:55:01.372Z,1.1
2023-02-23T01:56:01.364Z,1.2
2023-02-23T01:57:02.309Z,1.2
2023-02-23T01:58:02.242Z,1.2
2023-02-23T01:59:02.164Z,1.2
2023-02-23T02:00:02.127Z,1.1
2023-02-23T02:01:02.034Z,1.2
2023-02-23T02:02:02.034Z,1.2
2023-02-23T02:03:01.964Z,1.3
2023-02-23T02:04:01.847Z,1.1
2023-02-23T02:05:01.836Z,1.2
2023-02-23T02:06:01.762Z,1.2
2023-02-23T02:07:01.735Z,1.1
2023-02-23T02:08:01.614Z,1.2
2023-02-23T02:09:01.526Z,1.1
2023-02-23T02:10:01.467Z,1
2023-02-23T02:11:01.386Z,0.9
2023-02-23T02:12:01.358Z,1
2023-02-23T02:13:02.406Z,1
2023-02-23T02:14:02.247Z,1.1
2023-02-23T02:15:02.203Z,1.1
2023-02-23T02:16:02.162Z,1.1
2023-02-23T02:17:01.774Z,0.9
2023-02-23T02:18:01.729Z,1
2023-02-23T02:19:01.646Z,1.1
2023-02-23T02:20:01.551Z,1.1
2023-02-23T02:21:01.453Z,1.1
2023-02-23T02:22:01.388Z,1.1
2023-02-23T02:23:01.342Z,1
2023-02-23T02:24:01.299Z,1.1
2023-02-23T02:25:02.379Z,1
2023-02-23T02:26:02.230Z,1.1
2023-02-23T02:27:02.222Z,1.1
2023-02-23T02:28:02.119Z,1.1
2023-02-23T02:29:02.074Z,1.1
2023-02-23T02:30:02.056Z,1.1
2023-02-23T02:31:02.043Z,1
2023-02-23T02:32:01.971Z,1
2023-02-23T02:33:02.096Z,1
2023-02-23T02:34:01.993Z,1
2023-02-23T02:35:01.919Z,1
2023-02-23T02:36:01.797Z,1
2023-02-23T02:37:01.756Z,1
2023-02-23T02:38:01.746Z,1
2023-02-23T02:39:01.633Z,1
2023-02-23T02:40:01.597Z,1
2023-02-23T02:41:01.516Z,1
2023-02-23T02:42:01.438Z,1
2023-02-23T02:43:01.372Z,1
2023-02-23T02:44:02.301Z,0.9
2023-02-23T02:45:02.446Z,1
2023-02-23T02:46:02.215Z,0.9
2023-02-23T02:47:02.258Z,1
2023-02-23T02:48:02.166Z,0.9
2023-02-23T02:49:02.123Z,0.9
2023-02-23T02:50:02.081Z,1
2023-02-23T02:51:02.010Z,1
2023-02-23T02:52:01.961Z,0.9
2023-02-23T02:53:01.883Z,0.9
2023-02-23T02:54:01.843Z,0.9
2023-02-23T02:55:01.722Z,0.9
2023-02-23T02:56:01.659Z,0.9
2023-02-23T02:57:01.569Z,0.9
2023-02-23T02:58:01.504Z,0.9
2023-02-23T02:59:01.446Z,0.9
2023-02-23T03:00:01.325Z,0.9
2023-02-23T03:01:02.332Z,0.9
2023-02-23T03:02:02.014Z,0.9
2023-02-23T03:03:01.997Z,0.8
2023-02-23T03:04:01.873Z,0.9
2023-02-23T03:05:01.893Z,0.9
2023-02-23T03:06:01.806Z,0.9
2023-02-23T03:07:01.725Z,0.8
2023-02-23T03:08:01.679Z,0.8
2023-02-23T03:09:01.624Z,0.9
2023-02-23T03:10:01.526Z,0.9
2023-02-23T03:11:01.425Z,0.9
2023-02-23T03:12:01.360Z,0.9
2023-02-23T03:13:01.313Z,0.8
2023-02-23T03:14:02.290Z,0.8
2023-02-23T03:15:02.220Z,0.8
2023-02-23T03:16:02.194Z,0.8
2023-02-23T03:17:02.060Z,0.8
2023-02-23T03:18:02.039Z,0.8
2023-02-23T03:19:01.929Z,0.8
2023-02-23T03:20:01.834Z,0.8
2023-02-23T03:21:01.787Z,0.8
2023-02-23T03:22:01.677Z,0.7
2023-02-23T03:23:01.635Z,0.8
2023-02-23T03:24:03.040Z,0.7
2023-02-23T03:25:01.836Z,0.8
2023-02-23T03:26:01.794Z,0.8
2023-02-23T03:27:01.726Z,0.7
2023-02-23T03:28:01.658Z,0.7
2023-02-23T03:29:01.580Z,0.8
2023-02-23T03:30:01.552Z,0.7
2023-02-23T03:31:01.498Z,0.8
2023-02-23T03:32:02.294Z,0.7
2023-02-23T03:33:01.420Z,0.7
2023-02-23T03:34:01.366Z,0.7
2023-02-23T03:35:02.308Z,0.8
2023-02-23T03:36:02.342Z,0.8
2023-02-23T03:37:02.186Z,0.8
2023-02-23T03:38:02.135Z,0.7
2023-02-23T03:39:02.025Z,0.8
2023-02-23T03:40:02.008Z,0.7
2023-02-23T03:41:01.936Z,0.7
2023-02-23T03:42:01.904Z,0.7
2023-02-23T03:43:01.823Z,0.7
2023-02-23T03:44:01.717Z,0.7
2023-02-23T03:45:01.669Z,0.7
2023-02-23T03:46:01.711Z,0.7
2023-02-23T03:47:01.407Z,0.7
2023-02-23T03:48:01.334Z,0.7
2023-02-23T03:49:02.266Z,0.7
2023-02-23T03:50:02.246Z,0.7
2023-02-23T03:51:02.211Z,0.7
2023-02-23T03:52:02.125Z,0.7
2023-02-23T03:53:02.055Z,0.7
2023-02-23T03:54:02.004Z,0.7
2023-02-23T03:55:01.943Z,0.6
2023-02-23T03:56:01.835Z,0.7
2023-02-23T03:57:01.791Z,0.7
2023-02-23T03:58:01.687Z,0.7
2023-02-23T03:59:01.570Z,0.7
2023-02-23T04:00:01.494Z,0.7
2023-02-23T04:01:01.395Z,0.6
2023-02-23T04:02:01.970Z,0.7
2023-02-23T04:03:01.898Z,0.7
2023-02-23T04:04:01.840Z,0.6
2023-02-23T04:05:01.777Z,0.7
2023-02-23T04:06:01.751Z,0.7
2023-02-23T04:07:01.654Z,0.6
2023-02-23T04:08:01.582Z,0.6
2023-02-23T04:09:01.522Z,0.7
2023-02-23T04:10:01.448Z,0.7
2023-02-23T04:11:01.372Z,0.6
2023-02-23T04:12:01.303Z,0.7
2023-02-23T04:13:02.224Z,0.7
2023-02-23T04:14:02.202Z,0.6
2023-02-23T04:15:02.153Z,0.6
2023-02-23T04:16:02.120Z,0.6
2023-02-23T04:17:01.940Z,0.6
2023-02-23T04:18:01.833Z,0.6
2023-02-23T04:19:01.730Z,0.6
2023-02-23T04:20:01.666Z,0.6
2023-02-23T04:21:01.666Z,0.7
2023-02-23T04:22:01.598Z,0.6
2023-02-23T04:23:01.532Z,0.6
2023-02-23T04:24:01.454Z,0.6
2023-02-23T04:25:01.378Z,0.6
2023-02-23T04:26:01.300Z,0.6
2023-02-23T04:27:02.272Z,0.6
2023-02-23T04:28:02.226Z,0.6
2023-02-23T04:29:02.154Z,0.6
2023-02-23T04:30:02.056Z,0.6
2023-02-23T04:31:02.019Z,0.6
2023-02-23T04:32:02.190Z,0.5
2023-02-23T04:33:02.159Z,0.6
2023-02-23T04:34:02.115Z,0.6
2023-02-23T04:35:02.071Z,0.6
2023-02-23T04:36:02.025Z,0.6
2023-02-23T04:37:01.904Z,0.6
2023-02-23T04:38:01.824Z,0.6
2023-02-23T04:39:01.717Z,0.6
2023-02-23T04:40:01.628Z,0.7
2023-02-23T04:41:01.631Z,0.7
2023-02-23T04:42:01.507Z,0.6
2023-02-23T04:43:01.431Z,0.6
2023-02-23T04:44:01.375Z,0.6
2023-02-23T04:45:01.302Z,0.6
2023-02-23T04:46:02.327Z,0.6
2023-02-23T04:47:01.360Z,0.6
2023-02-23T04:48:01.395Z,0.6
2023-02-23T04:49:02.271Z,0.6
2023-02-23T04:50:02.249Z,0.6
2023-02-23T04:51:02.220Z,0.7
2023-02-23T04:52:02.131Z,0.6
2023-02-23T04:53:02.131Z,0.6
2023-02-23T04:54:01.957Z,0.5
2023-02-23T04:55:01.950Z,0.5
2023-02-23T04:56:01.882Z,0.6
2023-02-23T04:57:01.860Z,0.5
2023-02-23T04:58:01.820Z,0.5
2023-02-23T04:59:01.739Z,0.5
2023-02-23T05:00:01.679Z,0.5
2023-02-23T05:01:01.630Z,0.5
2023-02-23T05:02:01.684Z,0.5
2023-02-23T05:03:01.642Z,0.5
2023-02-23T05:04:01.562Z,0.5
2023-02-23T05:05:01.461Z,0.5
2023-02-23T05:06:01.390Z,0.5
2023-02-23T05:07:01.364Z,0.5
2023-02-23T05:08:02.280Z,0.5
2023-02-23T05:09:02.215Z,0.5
2023-02-23T05:10:02.192Z,0.5
2023-02-23T05:11:02.133Z,0.5
2023-02-23T05:12:02.079Z,0.5
2023-02-23T05:13:02.000Z,0.5
2023-02-23T05:14:01.900Z,0.6
2023-02-23T05:15:01.806Z,0.6
2023-02-23T05:16:01.789Z,0.5
2023-02-23T05:17:01.678Z,0.4
2023-02-23T05:18:01.632Z,0.5
2023-02-23T05:19:01.584Z,0.5
2023-02-23T05:20:01.533Z,0.4
2023-02-23T05:21:01.403Z,0.4
2023-02-23T05:22:01.357Z,0.4
2023-02-23T05:23:02.295Z,0.5
2023-02-23T05:24:02.215Z,0.5
2023-02-23T05:25:02.187Z,0.5
2023-02-23T05:26:02.130Z,0.5
2023-02-23T05:27:02.094Z,0.4
2023-02-23T05:28:01.975Z,0.4
2023-02-23T05:29:01.886Z,0.4
2023-02-23T05:30:01.812Z,0.4
2023-02-23T05:31:01.816Z,0.4
2023-02-23T05:32:02.125Z,0.4
2023-02-23T05:33:02.256Z,0.4
2023-02-23T05:34:02.186Z,0.4
2023-02-23T05:35:02.189Z,0.4
2023-02-23T05:36:02.086Z,0.5
2023-02-23T05:37:02.001Z,0.5
2023-02-23T05:38:01.935Z,0.5
2023-02-23T05:39:01.879Z,0.5
2023-02-23T05:40:01.824Z,0.5
2023-02-23T05:41:01.739Z,0.5
2023-02-23T05:42:01.675Z,0.4
2023-02-23T05:43:01.624Z,0.5
2023-02-23T05:44:01.488Z,0.5
2023-02-23T05:45:01.406Z,0.4
2023-02-23T05:46:01.347Z,0.6
2023-02-23T05:47:02.314Z,0.5
2023-02-23T05:48:02.215Z,0.5
2023-02-23T05:49:02.138Z,0.5
2023-02-23T05:50:02.132Z,0.5
2023-02-23T05:51:02.107Z,0.5
2023-02-23T05:52:02.032Z,0.5
2023-02-23T05:53:02.004Z,0.5
2023-02-23T05:54:01.945Z,0.5
2023-02-23T05:55:01.904Z,0.4
2023-02-23T05:56:01.862Z,0.4
2023-02-23T05:57:01.975Z,0.5
2023-02-23T05:58:01.752Z,0.5
2023-02-23T05:59:01.716Z,0.4
2023-02-23T06:00:01.633Z,0.5
2023-02-23T06:01:01.521Z,0.6
2023-02-23T06:02:01.344Z,0.5
2023-02-23T06:03:02.398Z,0.5
2023-02-23T06:04:03.115Z,0.5
2023-02-23T06:05:01.863Z,0.5
2023-02-23T06:06:01.804Z,0.5
2023-02-23T06:07:01.755Z,0.5
2023-02-23T06:08:01.686Z,0.5
2023-02-23T06:09:01.757Z,0.5
2023-02-23T06:10:01.571Z,0.5
2023-02-23T06:11:01.544Z,0.5
2023-02-23T06:12:01.416Z,0.6
2023-02-23T06:13:01.358Z,0.6
2023-02-23T06:14:02.324Z,0.6
2023-02-23T06:15:02.237Z,0.6
2023-02-23T06:16:02.320Z,0.6
2023-02-23T06:17:02.088Z,0.6
2023-02-23T06:18:01.962Z,0.6
2023-02-23T06:19:01.896Z,0.6
2023-02-23T06:20:01.794Z,0.7
2023-02-23T06:21:01.767Z,0.6
2023-02-23T06:22:01.611Z,0.6
2023-02-23T06:23:02.240Z,0.6
2023-02-23T06:24:02.145Z,0.6
2023-02-23T06:25:02.130Z,0.6
2023-02-23T06:26:02.024Z,0.7
2023-02-23T06:27:01.953Z,0.7
2023-02-23T06:28:01.875Z,0.7
2023-02-23T06:29:01.815Z,0.7
2023-02-23T06:30:01.814Z,0.8
2023-02-23T06:31:01.827Z,0.8
2023-02-23T06:32:02.238Z,0.8
2023-02-23T06:33:01.388Z,0.8
2023-02-23T06:34:02.326Z,0.8
2023-02-23T06:35:02.242Z,0.8
2023-02-23T06:36:02.228Z,0.8
2023-02-23T06:37:02.107Z,0.8
2023-02-23T06:38:02.056Z,0.8
2023-02-23T06:39:01.980Z,0.8
2023-02-23T06:40:02.047Z,0.9
2023-02-23T06:41:01.389Z,0.9
2023-02-23T06:42:01.354Z,0.9
2023-02-23T06:43:02.344Z,0.9
2023-02-23T06:44:02.221Z,0.9
2023-02-23T06:45:02.204Z,0.9
2023-02-23T06:46:02.117Z,0.9
2023-02-23T06:47:01.872Z,0.9
2023-02-23T06:48:01.819Z,1
2023-02-23T06:49:01.720Z,1
2023-02-23T06:50:02.226Z,1
2023-02-23T06:51:01.957Z,1
2023-02-23T06:52:01.899Z,1.2
2023-02-23T06:53:01.901Z,1.2
2023-02-23T06:54:01.815Z,1.3
2023-02-23T06:55:01.757Z,1.3
2023-02-23T06:56:01.728Z,1.3
2023-02-23T06:57:01.670Z,1.3
2023-02-23T06:58:01.656Z,1.5
2023-02-23T06:59:01.556Z,1.5
2023-02-23T07:00:01.510Z,1.6
2023-02-23T07:01:01.354Z,1.5
2023-02-23T07:02:02.184Z,1.4
2023-02-23T07:03:02.199Z,1.5
2023-02-23T07:04:02.088Z,1.6
2023-02-23T07:05:01.467Z,1.6
2023-02-23T07:06:01.395Z,1.6
2023-02-23T07:07:01.435Z,1.5
2023-02-23T07:08:02.338Z,1.5
2023-02-23T07:09:02.258Z,1.6
2023-02-23T07:10:02.318Z,1.5
2023-02-23T07:11:02.174Z,1.6
2023-02-23T07:12:02.161Z,1.6
2023-02-23T07:13:02.065Z,1.7
2023-02-23T07:14:02.083Z,1.7
2023-02-23T07:15:01.963Z,1.8
2023-02-23T07:16:01.926Z,1.8
2023-02-23T07:17:01.889Z,1.8
2023-02-23T07:18:01.906Z,1.7
2023-02-23T07:19:01.768Z,1.8
2023-02-23T07:20:01.669Z,1.8
2023-02-23T07:21:01.605Z,1.6
2023-02-23T07:22:01.459Z,1.7
2023-02-23T07:23:01.435Z,1.7
2023-02-23T07:24:02.381Z,1.7
2023-02-23T07:25:02.216Z,1.8
2023-02-23T07:26:02.285Z,1.7
2023-02-23T07:27:02.200Z,1.9
2023-02-23T07:28:02.248Z,1.9
2023-02-23T07:29:02.099Z,1.9
2023-02-23T07:30:02.175Z,1.8
2023-02-23T07:31:02.097Z,2
2023-02-23T07:32:02.031Z,1.9
2023-02-23T07:33:02.304Z,2.1
2023-02-23T07:34:02.192Z,2.1
2023-02-23T07:35:02.288Z,2.1
2023-02-23T07:36:02.147Z,2.1
2023-02-23T07:37:02.198Z,2.1
2023-02-23T07:38:02.079Z,2.2
2023-02-23T07:39:02.176Z,2.1
2023-02-23T07:40:02.196Z,2.2
2023-02-23T07:41:02.278Z,2.3
2023-02-23T07:42:02.093Z,2.3
2023-02-23T07:43:02.173Z,2.3
2023-02-23T07:44:02.073Z,2.3
2023-02-23T07:45:02.081Z,2.4
2023-02-23T07:46:02.005Z,2.5
2023-02-23T07:47:02.268Z,2.4
2023-02-23T07:48:02.302Z,2.4
2023-02-23T07:49:02.129Z,2.5
2023-02-23T07:50:02.172Z,2.4
2023-02-23T07:51:02.021Z,2.4
2023-02-23T07:52:01.946Z,2.4
2023-02-23T07:53:02.003Z,2.4
2023-02-23T07:54:01.801Z,2.5
2023-02-23T07:55:01.736Z,2.4
2023-02-23T07:56:01.739Z,2.4
2023-02-23T07:57:01.538Z,2.5
2023-02-23T07:58:01.936Z,2.5
2023-02-23T07:59:01.738Z,2.4
2023-02-23T08:00:01.719Z,2.3
2023-02-23T08:01:01.748Z,2.3
2023-02-23T08:02:01.536Z,2.4
2023-02-23T08:03:01.526Z,2.4
2023-02-23T08:04:01.423Z,2.5
2023-02-23T08:05:01.396Z,2.6
2023-02-23T08:06:02.371Z,2.5
2023-02-23T08:07:02.268Z,2.6
2023-02-23T08:08:02.279Z,2.6
2023-02-23T08:09:02.131Z,2.6
2023-02-23T08:10:02.185Z,2.7
2023-02-23T08:11:02.033Z,2.7
2023-02-23T08:12:02.039Z,2.8
2023-02-23T08:13:01.977Z,2.9
2023-02-23T08:14:02.023Z,2.9
2023-02-23T08:15:01.969Z,2.9
2023-02-23T08:16:01.818Z,2.9
2023-02-23T08:17:01.829Z,3
2023-02-23T08:18:01.882Z,3
2023-02-23T08:19:01.725Z,2.8
2023-02-23T08:20:01.815Z,2.9
2023-02-23T08:21:01.568Z,3.1
2023-02-23T08:22:01.598Z,3.1
2023-02-23T08:23:01.395Z,3.1
2023-02-23T08:24:01.429Z,3.1
2023-02-23T08:25:02.374Z,3
2023-02-23T08:26:02.219Z,3.1
2023-02-23T08:27:02.218Z,3.2
2023-02-23T08:28:04.378Z,3.3
2023-02-23T08:29:01.623Z,3.3
2023-02-23T08:30:01.642Z,3.4
2023-02-23T08:31:01.483Z,3.6
2023-02-23T08:32:01.955Z,3.6
2023-02-23T08:33:02.264Z,3.5
2023-02-23T08:34:02.138Z,3.7
2023-02-23T08:35:02.191Z,3.8
2023-02-23T08:36:02.012Z,4
2023-02-23T08:37:02.012Z,4.1
2023-02-23T08:38:02.316Z,4.2
2023-02-23T08:39:02.129Z,4.2
2023-02-23T08:40:02.156Z,4.1
2023-02-23T08:41:01.983Z,4.3
2023-02-23T08:42:01.863Z,4.3
2023-02-23T08:43:01.866Z,4.4
2023-02-23T08:44:01.745Z,4.4
2023-02-23T08:45:01.758Z,4.5
2023-02-23T08:46:01.661Z,4.4
2023-02-23T08:47:01.425Z,4.3
2023-02-23T08:48:01.336Z,4.2
2023-02-23T08:49:02.278Z,4.3
2023-02-23T08:50:02.280Z,4.2
2023-02-23T08:51:02.220Z,4.2
2023-02-23T08:52:02.114Z,4.2
2023-02-23T08:53:02.117Z,4.3
2023-02-23T08:54:02.155Z,4.4
2023-02-23T08:55:02.104Z,4.3
2023-02-23T08:56:02.028Z,4.4
2023-02-23T08:57:02.041Z,4.5
2023-02-23T08:58:01.999Z,4.5
2023-02-23T08:59:01.866Z,4.5
2023-02-23T09:00:01.812Z,4.5
2023-02-23T09:01:01.731Z,4.5
2023-02-23T09:02:01.621Z,4.7
2023-02-23T09:03:01.506Z,4.7
2023-02-23T09:04:01.415Z,4.8
2023-02-23T09:05:01.334Z,4.9
2023-02-23T09:06:02.252Z,5
2023-02-23T09:07:02.280Z,5
2023-02-23T09:08:02.248Z,5
2023-02-23T09:09:02.209Z,5.1
2023-02-23T09:10:02.158Z,5.2
2023-02-23T09:11:02.111Z,5.2
2023-02-23T09:12:02.129Z,5.3
2023-02-23T09:13:02.026Z,5.5
2023-02-23T09:14:01.992Z,5.4
2023-02-23T09:15:01.926Z,5.4
2023-02-23T09:16:01.889Z,5.5
2023-02-23T09:17:01.747Z,5.6
2023-02-23T09:18:01.669Z,5.6
2023-02-23T09:19:01.600Z,5.7
2023-02-23T09:20:01.511Z,5.9
2023-02-23T09:21:01.412Z,6
2023-02-23T09:22:01.356Z,6.3
2023-02-23T09:23:02.304Z,6.3
2023-02-23T09:24:02.224Z,6.2
2023-02-23T09:25:02.177Z,6.3
2023-02-23T09:26:02.114Z,6.5
2023-02-23T09:27:02.045Z,6.4
2023-02-23T09:28:01.980Z,6.3
2023-02-23T09:29:01.922Z,6.1
2023-02-23T09:30:01.863Z,6.4
2023-02-23T09:31:01.864Z,6.4
2023-02-23T09:32:02.092Z,6.5
2023-02-23T09:33:02.155Z,6.4
2023-02-23T09:34:02.095Z,6.6
2023-02-23T09:35:02.049Z,6.5
2023-02-23T09:36:01.969Z,6.4
2023-02-23T09:37:01.913Z,6.4
2023-02-23T09:38:01.802Z,6.4
2023-02-23T09:39:01.696Z,6.4
2023-02-23T09:40:01.653Z,6.5
2023-02-23T09:41:01.566Z,6.2
2023-02-23T09:42:01.517Z,6.2
2023-02-23T09:43:01.435Z,6.2
2023-02-23T09:44:01.364Z,6.4
2023-02-23T09:45:01.406Z,6.4
2023-02-23T09:46:02.223Z,6.3
2023-02-23T09:47:02.259Z,6.1
2023-02-23T09:48:02.228Z,6.3
2023-02-23T09:49:02.167Z,6.5
2023-02-23T09:50:02.146Z,6.4
2023-02-23T09:51:02.079Z,6.5
2023-02-23T09:52:02.011Z,6.5
2023-02-23T09:53:02.553Z,6.6
2023-02-23T09:54:02.085Z,6.6
2023-02-23T09:55:02.101Z,6.5
2023-02-23T09:56:02.076Z,6.5
2023-02-23T09:57:02.016Z,6.5
2023-02-23T09:58:02.013Z,6.7
2023-02-23T09:59:01.950Z,6.7
2023-02-23T10:00:01.900Z,6.7
2023-02-23T10:01:01.807Z,6.7
2023-02-23T10:02:01.634Z,6.7
2023-02-23T10:03:01.554Z,6.6
2023-02-23T10:04:01.474Z,6.6
2023-02-23T10:05:01.519Z,6.7
2023-02-23T10:06:01.351Z,6.9
2023-02-23T10:07:02.335Z,7.1
2023-02-23T10:08:02.268Z,7
2023-02-23T10:09:02.213Z,7.1
2023-02-23T10:10:02.161Z,7.3
2023-02-23T10:11:02.116Z,7.3
2023-02-23T10:12:02.030Z,7.3
2023-02-23T10:13:01.985Z,7.4
2023-02-23T10:14:01.980Z,7.5
2023-02-23T10:15:01.957Z,7.6
2023-02-23T10:16:01.969Z,7.6
2023-02-23T10:17:02.014Z,7.6
2023-02-23T10:18:03.243Z,7.6
2023-02-23T10:19:02.061Z,7.6
2023-02-23T10:20:02.011Z,7.7
2023-02-23T10:21:01.945Z,7.6
2023-02-23T10:22:01.907Z,7.5
2023-02-23T10:23:01.837Z,7.7
2023-02-23T10:24:01.727Z,7.9
2023-02-23T10:25:01.672Z,7.9
2023-02-23T10:26:01.631Z,7.9
2023-02-23T10:27:01.576Z,8
2023-02-23T10:28:01.481Z,7.8
2023-02-23T10:29:01.466Z,8
2023-02-23T10:30:01.371Z,8
2023-02-23T10:31:02.326Z,8.1
2023-02-23T10:32:01.678Z,8.1
2023-02-23T10:33:01.858Z,7.8
2023-02-23T10:34:01.762Z,8.1
2023-02-23T10:35:01.720Z,8.2
2023-02-23T10:36:12.730Z,8.3
2023-02-23T10:37:01.748Z,8.4
2023-02-23T10:38:01.506Z,8.5
2023-02-23T10:39:01.430Z,8.6
2023-02-23T10:40:01.323Z,8.7
2023-02-23T10:41:02.276Z,8.6
2023-02-23T10:42:02.260Z,8.8
2023-02-23T10:43:02.175Z,8.9
2023-02-23T10:44:14.526Z,8.9
2023-02-23T10:45:01.867Z,9.1
2023-02-23T10:46:01.825Z,9.1
2023-02-23T10:47:01.931Z,8.9
2023-02-23T10:48:01.913Z,9.1
2023-02-23T10:49:01.852Z,9.2
2023-02-23T10:50:01.800Z,9.2
2023-02-23T10:51:01.734Z,9.4
2023-02-23T10:52:01.608Z,9.3
2023-02-23T10:53:01.511Z,9.4
2023-02-23T10:54:07.891Z,9.4
2023-02-23T10:55:01.940Z,9.5
2023-02-23T10:56:01.857Z,9.6
2023-02-23T10:57:01.790Z,9.7
2023-02-23T10:58:01.737Z,9.8
2023-02-23T10:59:01.698Z,9.7
2023-02-23T11:00:01.657Z,9.7
2023-02-23T11:01:01.559Z,9.7
2023-02-23T11:02:02.897Z,9.7
2023-02-23T11:03:01.906Z,9.8
2023-02-23T11:04:06.105Z,9.9
2023-02-23T11:05:02.120Z,9.9
2023-02-23T11:06:02.100Z,9.8
2023-02-23T11:07:02.080Z,9.9
2023-02-23T11:08:02.039Z,9.8
2023-02-23T11:09:02.503Z,9.8
2023-02-23T11:10:01.907Z,9.9
2023-02-23T11:11:01.817Z,9.9
2023-02-23T11:12:01.692Z,9.9
2023-02-23T11:13:01.612Z,10
2023-02-23T11:14:01.640Z,9.8
2023-02-23T11:15:01.587Z,9.8
2023-02-23T11:16:01.519Z,9.7
2023-02-23T11:17:02.316Z,9.8
2023-02-23T11:18:02.228Z,9.7
2023-02-23T11:19:02.262Z,9.8
2023-02-23T11:20:02.208Z,9.9
2023-02-23T11:21:02.172Z,9.8
2023-02-23T11:22:02.128Z,9.9
2023-02-23T11:23:13.010Z,9.9
2023-02-23T11:24:01.510Z,9.8
2023-02-23T11:25:01.398Z,9.6
2023-02-23T11:26:01.350Z,9.4
2023-02-23T11:27:02.296Z,9.3
2023-02-23T11:28:02.295Z,9.2
2023-02-23T11:29:02.228Z,9.4
2023-02-23T11:30:02.203Z,9.4
2023-02-23T11:31:02.252Z,9.4
2023-02-23T11:32:04.476Z,9.4
2023-02-23T11:33:02.155Z,9.4
2023-02-23T11:34:02.145Z,9.4
2023-02-23T11:35:02.092Z,9.3
2023-02-23T11:36:02.081Z,9.3
2023-02-23T11:37:02.025Z,9.2
2023-02-23T11:38:02.678Z,9.1
2023-02-23T11:39:02.074Z,9.2
2023-02-23T11:40:02.005Z,9.2
2023-02-23T11:41:01.943Z,9.1
2023-02-23T11:42:01.925Z,9.1
2023-02-23T11:43:01.907Z,9.2
2023-02-23T11:44:02.579Z,9.1
2023-02-23T11:45:02.021Z,9
2023-02-23T11:46:02.077Z,9
2023-02-23T11:47:02.143Z,8.9
2023-02-23T11:48:02.171Z,9
2023-02-23T11:49:02.023Z,9.1
2023-02-23T11:50:01.950Z,9.1
2023-02-23T11:51:01.970Z,9.1
2023-02-23T11:52:01.870Z,9.2
2023-02-23T11:53:01.820Z,9.3
2023-02-23T11:54:01.817Z,9.3
2023-02-23T11:55:02.312Z,9.2
2023-02-23T11:56:02.177Z,9.2
2023-02-23T11:57:02.095Z,9.3
2023-02-23T11:58:02.060Z,9.3
2023-02-23T11:59:01.971Z,9.4
2023-02-23T12:00:02.016Z,9.3
2023-02-23T12:01:01.924Z,9.2
2023-02-23T12:02:01.882Z,9.3
2023-02-23T12:03:01.886Z,9.3
2023-02-23T12:04:01.823Z,9.2
2023-02-23T12:05:01.780Z,9.2
2023-02-23T12:06:01.635Z,9.2
2023-02-23T12:07:01.537Z,9.3
2023-02-23T12:08:01.479Z,9.2
2023-02-23T12:09:01.392Z,9.4
2023-02-23T12:10:01.276Z,9.3
2023-02-23T12:11:02.244Z,9.2
2023-02-23T12:12:02.199Z,9.3
2023-02-23T12:13:02.119Z,9.4
2023-02-23T12:14:02.128Z,9.2
2023-02-23T12:15:02.068Z,9.3
2023-02-23T12:16:02.155Z,9.4
2023-02-23T12:17:03.246Z,9.3
2023-02-23T12:18:01.864Z,9.3
2023-02-23T12:19:01.817Z,9.2
2023-02-23T12:20:01.851Z,9.4
2023-02-23T12:21:01.804Z,9.4
2023-02-23T12:22:01.748Z,9.4
2023-02-23T12:23:01.697Z,9.5
2023-02-23T12:24:01.651Z,9.6
2023-02-23T12:25:01.532Z,9.6
2023-02-23T12:26:01.439Z,9.5
2023-02-23T12:27:01.402Z,9.6
2023-02-23T12:28:07.698Z,9.6
2023-02-23T12:29:02.063Z,9.5
2023-02-23T12:30:02.030Z,9.6
2023-02-23T12:31:01.997Z,9.5
2023-02-23T12:32:01.865Z,9.4
2023-02-23T12:33:02.162Z,9.5
2023-02-23T12:34:02.017Z,9.5
2023-02-23T12:35:01.988Z,9.5
2023-02-23T12:36:01.907Z,9.6
2023-02-23T12:37:01.837Z,9.6
2023-02-23T12:38:01.796Z,9.6
2023-02-23T12:39:01.777Z,9.3
2023-02-23T12:40:01.640Z,9.4
2023-02-23T12:41:01.586Z,9.4
2023-02-23T12:42:01.508Z,9.4
2023-02-23T12:43:01.432Z,9.5
2023-02-23T12:44:01.369Z,9.5
2023-02-23T12:45:01.311Z,9.6
2023-02-23T12:46:02.344Z,9.5
2023-02-23T12:47:02.137Z,9.6
2023-02-23T12:48:02.149Z,9.4
2023-02-23T12:49:02.105Z,9.4
2023-02-23T12:50:02.018Z,9.5
2023-02-23T12:51:01.929Z,9.4
2023-02-23T12:52:01.901Z,9.6
2023-02-23T12:53:01.793Z,9.5
2023-02-23T12:54:01.733Z,9.5
2023-02-23T12:55:01.682Z,9.6
2023-02-23T12:56:01.623Z,9.6
2023-02-23T12:57:03.643Z,9.7
2023-02-23T12:58:01.310Z,9.6
2023-02-23T12:59:02.311Z,9.4
2023-02-23T13:00:02.260Z,9.3
2023-02-23T13:01:02.255Z,9.6
2023-02-23T13:02:02.214Z,9.6
2023-02-23T13:03:02.155Z,9.6
2023-02-23T13:04:02.091Z,9.6
2023-02-23T13:05:02.034Z,9.7
2023-02-23T13:06:01.946Z,9.5
2023-02-23T13:07:03.773Z,9.7
2023-02-23T13:08:12.668Z,9.6
2023-02-23T13:09:01.700Z,9.7
2023-02-23T13:10:01.656Z,9.6
2023-02-23T13:11:01.618Z,9.5
2023-02-23T13:12:01.535Z,9.5
2023-02-23T13:13:03.046Z,9.7
2023-02-23T13:14:01.913Z,9.6
2023-02-23T13:15:01.898Z,9.8
2023-02-23T13:16:01.750Z,9.9
2023-02-23T13:17:01.911Z,9.9
2023-02-23T13:18:01.924Z,9.9
2023-02-23T13:19:03.369Z,9.9
2023-02-23T13:20:01.705Z,9.9
2023-02-23T13:21:01.626Z,10
2023-02-23T13:22:01.620Z,9.9
2023-02-23T13:23:01.528Z,9.9
2023-02-23T13:24:01.420Z,9.9
2023-02-23T13:25:02.755Z,9.9
2023-02-23T13:26:01.852Z,10
2023-02-23T13:27:01.825Z,10
2023-02-23T13:28:01.684Z,9.9
2023-02-23T13:29:01.575Z,9.9
2023-02-23T13:30:01.492Z,10.1
2023-02-23T13:31:02.957Z,10.1
2023-02-23T13:32:01.568Z,10.1
2023-02-23T13:33:01.772Z,10.2
2023-02-23T13:34:01.696Z,10.1
2023-02-23T13:35:01.640Z,9.9
2023-02-23T13:36:01.574Z,10
2023-02-23T13:37:01.470Z,10.1
2023-02-23T13:38:01.429Z,10.1
2023-02-23T13:39:03.027Z,10.2
2023-02-23T13:40:01.909Z,10.2
2023-02-23T13:41:01.916Z,10.1
2023-02-23T13:42:01.792Z,10.1
2023-02-23T13:43:01.733Z,10
2023-02-23T13:44:01.658Z,10
2023-02-23T13:45:01.827Z,10
2023-02-23T13:46:01.902Z,10.1
2023-02-23T13:47:01.718Z,10.1
2023-02-23T13:48:01.631Z,9.7
2023-02-23T13:49:02.340Z,9.6